Time;durP1;ratioP1;P1;durP2;ratioP2;P2;SDS_P1;SDS_P2;PMS_P1;PMS_P2;Temp;Humidity;BMP_temperature;BMP_pressure;BME280_temperature;BME280_humidity;BME280_pressure;Samples;Min_cycle;Max_cycle;Signal;HPM_P1;HPM_P2
2023/06/20 15:27:58;;;;;;;6.53;6.03;;;29.80;91.30;;;;;;5088356;28;20545;-78
2023/06/20 15:30:27;;;;;;;7.28;6.18;;;29.70;91.90;;;;;;5081620;28;20568;-79
2023/06/20 15:32:59;;;;;;;6.70;6.20;;;29.70;91.70;;;;;;5097852;28;20199;-79
2023/06/20 15:35:28;;;;;;;7.00;6.40;;;29.70;91.90;;;;;;5093169;28;20193;-79
2023/06/20 15:37:56;;;;;;;7.03;6.32;;;29.70;92.70;;;;;;5087177;28;20310;-79
2023/06/20 15:40:23;;;;;;;7.07;6.57;;;29.60;92.90;;;;;;5093848;28;20204;-79
2023/06/20 15:42:51;;;;;;;7.72;7.13;;;29.50;93.20;;;;;;5092933;28;20216;-79
2023/06/20 15:45:20;;;;;;;7.30;6.18;;;29.50;93.70;;;;;;5029384;28;20226;-79
2023/06/20 15:47:47;;;;;;;7.30;6.53;;;29.60;94.00;;;;;;5030383;28;20211;-79
2023/06/20 15:50:15;;;;;;;8.57;6.82;;;29.70;94.60;;;;;;5038607;28;20194;-79
2023/06/20 15:52:42;;;;;;;9.05;6.72;;;29.70;96.40;;;;;;5035464;28;20199;-80
2023/06/20 15:55:10;;;;;;;6.78;6.25;;;29.60;96.10;;;;;;5037820;28;20206;-80
2023/06/20 15:57:38;;;;;;;7.30;6.50;;;29.60;96.30;;;;;;5032355;28;20688;-81
2023/06/20 16:00:09;;;;;;;7.30;6.65;;;29.50;96.10;;;;;;5038724;28;20195;-82
2023/06/20 16:02:39;;;;;;;13.52;7.38;;;29.50;96.20;;;;;;5039396;28;20191;-81
2023/06/20 16:05:12;;;;;;;7.30;6.63;;;29.50;96.60;;;;;;5032647;28;20207;-82
2023/06/20 16:07:54;;;;;;;6.50;5.93;;;29.60;96.90;;;;;;5038492;28;20219;-81
2023/06/20 16:10:21;;;;;;;7.75;7.05;;;29.60;97.80;;;;;;5032779;28;20190;-82
2023/06/20 16:12:49;;;;;;;7.22;6.45;;;29.60;97.70;;;;;;5034019;28;20218;-80
2023/06/20 16:15:17;;;;;;;7.05;6.40;;;29.40;97.90;;;;;;5030453;28;20662;-80
2023/06/20 16:17:45;;;;;;;7.05;6.40;;;29.40;98.60;;;;;;5035088;28;20214;-80
2023/06/20 16:20:13;;;;;;;7.90;7.20;;;29.50;99.90;;;;;;5038881;28;20195;-81
2023/06/20 16:22:40;;;;;;;13.60;12.30;;;29.30;99.90;;;;;;5048308;28;20238;-80
2023/06/20 16:25:09;;;;;;;7.65;6.95;;;29.40;99.90;;;;;;5028853;28;20216;-80
2023/06/20 16:27:37;;;;;;;8.63;7.38;;;29.50;99.90;;;;;;5041618;28;20231;-80
2023/06/20 16:30:06;;;;;;;7.53;6.93;;;29.40;99.90;;;;;;5035825;28;20207;-80
2023/06/20 16:32:34;;;;;;;7.18;6.57;;;29.30;99.90;;;;;;5051285;28;20203;-80
2023/06/20 16:35:05;;;;;;;6.75;6.15;;;29.40;99.90;;;;;;5039310;28;20199;-80
2023/06/20 16:37:33;;;;;;;6.68;5.97;;;29.40;99.90;;;;;;5026462;28;20218;-81
2023/06/20 16:40:06;;;;;;;7.13;6.43;;;29.30;99.90;;;;;;5019142;28;20214;-80
2023/06/20 16:42:55;;;;;;;6.95;6.35;;;29.30;99.90;;;;;;5049511;28;20200;-80
2023/06/20 16:45:26;;;;;;;5.72;5.22;;;29.20;99.50;;;;;;5009950;28;20203;-79
2023/06/20 16:47:53;;;;;;;5.45;5.03;;;29.30;98.10;;;;;;5019460;28;20688;-80
2023/06/20 16:50:24;;;;;;;5.57;5.18;;;29.30;97.40;;;;;;5021880;28;20211;-80
2023/06/20 16:52:51;;;;;;;5.40;5.00;;;29.30;96.70;;;;;;5017671;28;20211;-80
2023/06/20 16:55:19;;;;;;;5.80;4.57;;;29.40;96.50;;;;;;5033495;28;20196;-79
2023/06/20 16:57:46;;;;;;;5.40;5.00;;;29.20;94.90;;;;;;5018718;28;20216;-79
2023/06/20 17:00:16;;;;;;;5.95;4.97;;;29.20;95.00;;;;;;5016627;28;20210;-79
2023/06/20 17:02:43;;;;;;;5.78;4.65;;;29.20;94.80;;;;;;5019172;28;20204;-80
2023/06/20 17:05:13;;;;;;;5.30;4.80;;;29.10;94.70;;;;;;5022891;28;20195;-80
2023/06/20 17:07:43;;;;;;;5.72;5.00;;;29.10;94.30;;;;;;5023246;28;20704;-79
2023/06/20 17:10:12;;;;;;;5.85;4.85;;;29.10;94.30;;;;;;5005666;28;20693;-80
2023/06/20 17:12:40;;;;;;;4.72;4.40;;;29.10;94.20;;;;;;5013170;28;20204;-79
2023/06/20 17:15:08;;;;;;;4.93;4.53;;;29.10;93.20;;;;;;5004814;28;20200;-81
2023/06/20 17:17:36;;;;;;;4.55;4.15;;;29.10;93.10;;;;;;5008562;28;20224;-79
2023/06/20 17:20:10;;;;;;;4.80;4.40;;;29.10;93.00;;;;;;5014248;28;20195;-80
2023/06/20 17:22:37;;;;;;;5.45;4.75;;;29.10;93.00;;;;;;5045189;28;20206;-80
2023/06/20 17:25:09;;;;;;;5.03;4.60;;;29.10;92.70;;;;;;5007314;28;20197;-80
2023/06/20 17:27:51;;;;;;;5.63;5.00;;;29.10;92.80;;;;;;5013401;28;20261;-78
2023/06/20 17:30:29;;;;;;;4.97;4.57;;;29.10;93.10;;;;;;5039474;28;20192;-81
2023/06/20 17:32:58;;;;;;;5.10;4.68;;;29.10;92.90;;;;;;5010863;28;20692;-82
2023/06/20 17:35:27;;;;;;;5.35;4.82;;;29.10;92.90;;;;;;5014598;28;20208;-80
2023/06/20 17:37:54;;;;;;;5.78;5.18;;;29.10;92.30;;;;;;5012646;28;20214;-83
2023/06/20 17:40:30;;;;;;;5.65;5.10;;;29.10;92.10;;;;;;5011857;28;20210;-81
2023/06/20 17:42:59;;;;;;;5.13;4.72;;;29.20;91.60;;;;;;5011103;28;20199;-82
2023/06/20 17:45:26;;;;;;;6.00;5.40;;;29.20;91.60;;;;;;5037353;28;20200;-81
2023/06/20 17:47:54;;;;;;;5.63;5.13;;;29.20;91.80;;;;;;5009221;28;20188;-78
2023/06/20 17:50:21;;;;;;;5.47;4.88;;;29.10;91.50;;;;;;5011798;28;20203;-78
2023/06/20 17:52:49;;;;;;;6.03;5.45;;;29.10;91.80;;;;;;5028483;28;20211;-81
2023/06/20 17:55:16;;;;;;;5.97;5.47;;;29.00;92.00;;;;;;5010733;28;20204;-81
2023/06/20 17:57:45;;;;;;;5.53;5.03;;;29.10;91.70;;;;;;5010386;28;20224;-81
2023/06/20 18:00:14;;;;;;;5.80;4.95;;;29.10;91.70;;;;;;5007204;28;20204;-81
2023/06/20 18:02:42;;;;;;;5.75;5.13;;;29.00;91.80;;;;;;5015337;28;20798;-81
2023/06/20 18:05:10;;;;;;;6.93;4.65;;;29.00;91.80;;;;;;5006531;28;20211;-81
2023/06/20 18:07:37;;;;;;;6.05;5.40;;;29.00;92.00;;;;;;5015297;28;20212;-81
2023/06/20 18:10:05;;;;;;;5.47;4.93;;;28.90;92.20;;;;;;5014478;28;20215;-81
2023/06/20 18:12:33;;;;;;;5.68;5.18;;;28.90;92.30;;;;;;5012359;28;20200;-81
2023/06/20 18:15:02;;;;;;;6.00;5.40;;;28.80;92.50;;;;;;5014431;28;20566;-81
2023/06/20 18:17:29;;;;;;;5.97;5.28;;;28.80;92.70;;;;;;5009921;28;20282;-81
2023/06/20 18:19:57;;;;;;;5.72;5.10;;;28.80;92.80;;;;;;5012356;28;20199;-81
2023/06/20 18:22:24;;;;;;;5.85;4.95;;;28.80;92.90;;;;;;5018620;28;20199;-81
2023/06/20 18:24:52;;;;;;;5.53;5.03;;;28.70;93.00;;;;;;5019607;28;20192;-81
2023/06/20 18:27:19;;;;;;;5.85;5.30;;;28.70;93.20;;;;;;5010449;28;20222;-81
2023/06/20 18:29:46;;;;;;;5.25;4.75;;;28.60;93.30;;;;;;5015292;28;20207;-81
2023/06/20 18:32:15;;;;;;;5.45;4.93;;;28.60;93.40;;;;;;5028333;28;20196;-81
2023/06/20 18:34:43;;;;;;;5.78;5.07;;;28.60;93.50;;;;;;5010151;28;20202;-81
2023/06/20 18:37:10;;;;;;;6.15;5.65;;;28.60;93.60;;;;;;5016090;28;20223;-81
2023/06/20 18:39:38;;;;;;;5.90;5.40;;;28.60;93.70;;;;;;5012549;28;20690;-81
2023/06/20 18:42:06;;;;;;;5.80;5.20;;;28.50;93.80;;;;;;5014333;28;20219;-79
2023/06/20 18:44:34;;;;;;;5.95;5.45;;;28.50;93.90;;;;;;5002626;28;20224;-79
2023/06/20 18:47:04;;;;;;;6.10;5.18;;;28.60;94.00;;;;;;5008675;28;20578;-80
2023/06/20 18:49:33;;;;;;;5.95;5.45;;;28.60;94.00;;;;;;5007896;28;20211;-81
2023/06/20 18:52:03;;;;;;;6.25;5.63;;;28.50;94.20;;;;;;5012323;28;20203;-79
2023/06/20 18:54:31;;;;;;;6.53;5.93;;;28.40;94.60;;;;;;5044037;28;20702;-81
2023/06/20 18:57:04;;;;;;;7.05;5.25;;;28.30;94.70;;;;;;5029227;28;21718;-80
2023/06/20 18:59:32;;;;;;;8.75;5.13;;;27.90;98.00;;;;;;5017886;28;20207;-79
2023/06/20 19:01:59;;;;;;;6.07;4.50;;;27.40;99.90;;;;;;5022741;28;20203;-81
2023/06/20 19:04:28;;;;;;;5.57;4.50;;;27.00;99.90;;;;;;5059365;28;20206;-80
2023/06/20 19:06:58;;;;;;;6.05;4.13;;;26.80;99.90;;;;;;5016325;28;20231;-81
2023/06/20 19:09:30;;;;;;;8.70;5.00;;;26.60;99.90;;;;;;5013455;28;20192;-80
2023/06/20 19:12:01;;;;;;;5.75;4.75;;;26.50;99.90;;;;;;5010454;28;20199;-81
2023/06/20 19:14:37;;;;;;;6.40;4.65;;;26.40;99.90;;;;;;5041268;28;20205;-82
2023/06/20 19:17:14;;;;;;;5.80;4.40;;;26.20;99.90;;;;;;5009669;28;20224;-81
2023/06/20 19:19:43;;;;;;;5.70;4.75;;;26.20;99.90;;;;;;5008827;28;20212;-81
2023/06/20 19:22:12;;;;;;;5.30;4.53;;;26.20;99.90;;;;;;5014391;28;20199;-81
2023/06/20 19:24:40;;;;;;;6.22;4.97;;;26.20;99.90;;;;;;5014716;28;20196;-81
2023/06/20 19:27:07;;;;;;;6.00;4.63;;;26.20;99.90;;;;;;5017691;28;20235;-81
2023/06/20 19:29:35;;;;;;;5.03;4.53;;;26.10;99.90;;;;;;5014242;28;20203;-81
2023/06/20 19:32:03;;;;;;;4.90;4.50;;;26.00;99.90;;;;;;5035972;28;20611;-82
2023/06/20 19:34:30;;;;;;;5.55;4.82;;;25.90;99.90;;;;;;5027601;28;20687;-82
2023/06/20 19:36:58;;;;;;;4.95;4.50;;;25.80;99.90;;;;;;5028031;28;20216;-82
2023/06/20 19:39:27;;;;;;;4.60;4.20;;;25.80;99.90;;;;;;5032923;28;20227;-82
2023/06/20 19:41:54;;;;;;;5.40;4.63;;;25.70;99.90;;;;;;5031218;28;20191;-82
2023/06/20 19:44:22;;;;;;;4.57;3.90;;;25.60;99.90;;;;;;5007700;28;20204;-82
2023/06/20 19:46:50;;;;;;;6.50;4.35;;;25.70;99.90;;;;;;5034277;28;20231;-82
2023/06/20 19:49:17;;;;;;;5.50;4.82;;;25.70;99.90;;;;;;5018849;28;20211;-82
2023/06/20 19:51:45;;;;;;;7.10;4.90;;;25.70;99.90;;;;;;5024669;28;20203;-82
2023/06/20 19:54:13;;;;;;;6.40;4.82;;;25.60;99.90;;;;;;5025554;28;20206;-82
2023/06/20 19:56:42;;;;;;;5.20;4.57;;;25.40;99.90;;;;;;5003539;28;20579;-82
2023/06/20 19:59:09;;;;;;;5.60;4.57;;;25.50;99.90;;;;;;5011726;28;20709;-82
2023/06/20 20:01:37;;;;;;;5.10;4.60;;;25.50;99.90;;;;;;5041206;28;20229;-82
2023/06/20 20:04:06;;;;;;;5.55;4.90;;;25.60;99.90;;;;;;5012390;28;20195;-81
2023/06/20 20:06:33;;;;;;;4.93;4.53;;;25.60;99.90;;;;;;5029897;28;20215;-82
2023/06/20 20:09:01;;;;;;;5.55;5.05;;;25.70;99.90;;;;;;5010054;28;20191;-80
2023/06/20 20:11:28;;;;;;;7.05;5.10;;;25.70;99.90;;;;;;5042865;28;20196;-80
2023/06/20 20:13:57;;;;;;;6.07;4.85;;;25.80;99.90;;;;;;5013795;28;20219;-81
2023/06/20 20:16:24;;;;;;;5.50;5.00;;;25.80;99.90;;;;;;5028513;28;20231;-80
2023/06/20 20:18:52;;;;;;;5.47;4.97;;;25.70;99.90;;;;;;5009378;28;20251;-82
2023/06/20 20:21:19;;;;;;;5.28;4.80;;;25.80;99.90;;;;;;5015785;28;20204;-82
2023/06/20 20:23:47;;;;;;;5.47;4.90;;;25.70;99.90;;;;;;5012460;28;20235;-81
2023/06/20 20:26:15;;;;;;;4.88;4.47;;;25.80;99.90;;;;;;5008017;28;20224;-81
2023/06/20 20:28:43;;;;;;;5.28;4.80;;;25.90;99.90;;;;;;5016473;28;20199;-81
2023/06/20 20:31:12;;;;;;;5.60;4.50;;;25.90;99.90;;;;;;5014015;28;20318;-81
2023/06/20 20:33:41;;;;;;;5.75;4.53;;;25.60;99.90;;;;;;5020151;28;20199;-80
2023/06/20 20:36:12;;;;;;;5.50;5.00;;;25.80;99.90;;;;;;5012971;28;20215;-81
2023/06/20 20:38:39;;;;;;;6.32;5.03;;;25.80;99.90;;;;;;5006955;28;20211;-81
2023/06/20 20:41:07;;;;;;;4.97;4.53;;;25.90;99.90;;;;;;5008392;28;20210;-81
2023/06/20 20:43:34;;;;;;;5.10;4.20;;;25.60;99.90;;;;;;5016826;28;20882;-81
2023/06/20 20:46:03;;;;;;;4.53;4.15;;;25.60;99.90;;;;;;5014004;28;20246;-81
2023/06/20 20:48:32;;;;;;;6.43;5.28;;;25.70;99.90;;;;;;5011713;28;20199;-81
2023/06/20 20:50:59;;;;;;;6.47;4.75;;;25.60;99.90;;;;;;5016035;28;20199;-81
2023/06/20 20:53:27;;;;;;;5.47;4.97;;;25.50;99.90;;;;;;5018440;28;20203;-81
2023/06/20 20:55:54;;;;;;;6.25;5.30;;;25.50;99.90;;;;;;5014949;28;20218;-81
2023/06/20 20:58:22;;;;;;;5.47;4.97;;;25.50;99.90;;;;;;5021568;28;20199;-81
2023/06/20 21:00:49;;;;;;;5.25;4.40;;;25.50;99.90;;;;;;5021470;28;20203;-81
2023/06/20 21:03:17;;;;;;;5.47;4.95;;;25.40;99.90;;;;;;5016622;28;20207;-81
2023/06/20 21:05:46;;;;;;;5.15;4.65;;;25.40;99.90;;;;;;5051771;28;20203;-81
2023/06/20 21:08:13;;;;;;;5.07;4.57;;;25.10;99.90;;;;;;5023615;28;20211;-81
2023/06/20 21:10:41;;;;;;;5.90;4.82;;;25.20;99.90;;;;;;5044154;28;20574;-81
2023/06/20 21:13:08;;;;;;;6.65;4.55;;;25.20;99.90;;;;;;5018502;28;20204;-80
2023/06/20 21:15:36;;;;;;;8.13;5.40;;;25.00;99.90;;;;;;5034310;28;20207;-81
2023/06/20 21:18:03;;;;;;;5.40;4.90;;;24.80;99.90;;;;;;5009542;28;20200;-81
2023/06/20 21:20:32;;;;;;;6.07;4.85;;;24.60;99.90;;;;;;5021842;28;20615;-81
2023/06/20 21:23:02;;;;;;;5.25;4.78;;;24.70;99.90;;;;;;5011779;28;20210;-81
2023/06/20 21:25:31;;;;;;;6.32;5.53;;;24.70;99.90;;;;;;5020639;28;20195;-81
2023/06/20 21:27:58;;;;;;;6.20;5.60;;;24.50;99.90;;;;;;5012404;28;20226;-81
2023/06/20 21:30:26;;;;;;;7.05;6.18;;;24.30;99.90;;;;;;5028330;28;20562;-81
2023/06/20 21:32:53;;;;;;;5.95;5.45;;;24.10;99.90;;;;;;5016345;28;20199;-81
2023/06/20 21:35:21;;;;;;;6.70;6.00;;;23.90;99.90;;;;;;5017352;28;20204;-80
2023/06/20 21:37:48;;;;;;;6.22;5.40;;;23.80;99.90;;;;;;5019402;28;20226;-81
2023/06/20 21:40:17;;;;;;;8.20;5.60;;;23.80;99.90;;;;;;5018552;28;20599;-81
2023/06/20 21:42:45;;;;;;;7.20;6.50;;;23.90;99.90;;;;;;5017056;28;20204;-81
2023/06/20 21:45:12;;;;;;;7.38;6.68;;;23.80;99.90;;;;;;5017825;28;20203;-81
2023/06/20 21:47:40;;;;;;;7.80;6.75;;;23.60;99.90;;;;;;5017407;28;20208;-81
2023/06/20 21:50:08;;;;;;;7.35;6.43;;;23.50;99.90;;;;;;5017837;28;20192;-81
2023/06/20 21:52:36;;;;;;;7.13;6.47;;;23.50;99.90;;;;;;5029679;28;20192;-81
2023/06/20 21:55:04;;;;;;;7.75;5.78;;;23.40;99.90;;;;;;5015405;28;20200;-80
2023/06/20 21:57:32;;;;;;;6.80;5.68;;;23.40;99.90;;;;;;5039630;28;20227;-81
2023/06/20 22:00:00;;;;;;;8.52;7.68;;;23.60;99.90;;;;;;5020294;28;20216;-81
2023/06/20 22:02:27;;;;;;;7.57;6.88;;;23.40;99.90;;;;;;5017072;28;20192;-80
2023/06/20 22:04:55;;;;;;;8.93;7.97;;;23.30;99.90;;;;;;5017191;28;20199;-81
2023/06/20 22:07:22;;;;;;;8.80;8.00;;;23.30;99.90;;;;;;5020885;28;20223;-81
2023/06/20 22:09:49;;;;;;;8.82;7.80;;;23.20;99.90;;;;;;5019621;28;20581;-81
2023/06/20 22:12:17;;;;;;;9.32;8.43;;;23.40;99.90;;;;;;5025234;28;20203;-81
2023/06/20 22:14:46;;;;;;;9.20;8.30;;;23.50;99.90;;;;;;5006284;28;20196;-81
2023/06/20 22:17:16;;;;;;;9.23;8.32;;;23.40;99.90;;;;;;5016392;28;20246;-81
2023/06/20 22:19:44;;;;;;;12.18;8.80;;;23.10;99.90;;;;;;5030591;28;20208;-80
2023/06/20 22:22:11;;;;;;;9.43;8.48;;;23.20;99.90;;;;;;5015668;28;20203;-81
2023/06/20 22:24:39;;;;;;;10.13;8.20;;;22.80;99.90;;;;;;5015289;28;20207;-81
2023/06/20 22:27:07;;;;;;;10.88;8.85;;;23.00;99.90;;;;;;5018480;28;20238;-80
2023/06/20 22:29:34;;;;;;;8.90;8.10;;;22.90;99.90;;;;;;5045096;28;20215;-80
2023/06/20 22:32:03;;;;;;;8.95;8.07;;;22.70;99.90;;;;;;5008588;28;20200;-81
2023/06/20 22:34:31;;;;;;;11.55;10.40;;;23.00;99.90;;;;;;5044442;28;20196;-81
2023/06/20 22:36:58;;;;;;;8.68;7.38;;;23.40;99.90;;;;;;5038783;28;20223;-80
2023/06/20 22:39:26;;;;;;;6.90;6.20;;;23.50;99.90;;;;;;5047652;28;20230;-81
2023/06/20 22:41:53;;;;;;;7.95;7.15;;;24.00;99.90;;;;;;5013928;28;20236;-81
2023/06/20 22:44:21;;;;;;;7.80;6.47;;;23.80;99.90;;;;;;5015358;28;20564;-81
2023/06/20 22:46:48;;;;;;;7.90;7.10;;;23.90;99.90;;;;;;5016443;28;20215;-81
2023/06/20 22:49:21;;;;;;;12.63;11.38;;;24.10;99.90;;;;;;5010127;28;20187;-81
2023/06/20 22:51:51;;;;;;;9.77;8.77;;;23.50;99.90;;;;;;5019214;28;20203;-81
2023/06/20 22:54:19;;;;;;;9.88;8.93;;;23.40;99.90;;;;;;5011605;28;20200;-81
2023/06/20 22:56:46;;;;;;;11.27;9.48;;;23.60;99.90;;;;;;5006885;28;20216;-81
2023/06/20 22:59:14;;;;;;;11.98;10.65;;;23.80;99.90;;;;;;5026786;28;20192;-81
2023/06/20 23:01:42;;;;;;;9.77;8.77;;;23.80;99.90;;;;;;5024309;28;20206;-80
2023/06/20 23:04:11;;;;;;;10.80;9.80;;;23.80;99.90;;;;;;5024347;28;20207;-81
2023/06/20 23:06:40;;;;;;;10.63;9.57;;;23.90;99.90;;;;;;5046896;28;20230;-81
2023/06/20 23:09:08;;;;;;;11.02;9.45;;;24.00;99.90;;;;;;5035970;28;20196;-81
2023/06/20 23:11:35;;;;;;;12.50;10.40;;;23.90;99.90;;;;;;5015060;28;20668;-81
2023/06/20 23:14:03;;;;;;;12.23;10.98;;;24.00;99.90;;;;;;5015380;28;20204;-81
2023/06/20 23:16:30;;;;;;;13.90;12.50;;;23.30;99.90;;;;;;5011640;28;20219;-81
2023/06/20 23:18:58;;;;;;;12.82;11.52;;;22.80;99.90;;;;;;5015150;28;20211;-81
2023/06/20 23:21:26;;;;;;;14.68;13.27;;;22.60;99.90;;;;;;5013962;28;20223;-81
2023/06/20 23:23:54;;;;;;;14.00;12.55;;;22.30;99.90;;;;;;5013060;28;20188;-81
2023/06/20 23:26:23;;;;;;;12.88;11.57;;;22.20;99.90;;;;;;5003486;28;20227;-80
2023/06/20 23:28:51;;;;;;;13.13;11.73;;;22.50;99.90;;;;;;5013922;28;20200;-81
2023/06/20 23:31:20;;;;;;;12.70;11.48;;;22.20;99.90;;;;;;5015333;28;20191;-81
2023/06/20 23:33:49;;;;;;;13.70;11.57;;;22.00;99.90;;;;;;5016833;28;20593;-81
2023/06/20 23:36:17;;;;;;;12.88;11.50;;;22.00;99.90;;;;;;5015494;28;20223;-80
2023/06/20 23:38:44;;;;;;;12.00;10.80;;;21.60;99.90;;;;;;5032269;28;20620;-81
2023/06/20 23:41:13;;;;;;;11.57;10.38;;;21.70;99.90;;;;;;5018019;28;20224;-81
2023/06/20 23:43:43;;;;;;;13.07;11.70;;;21.70;99.90;;;;;;5034937;28;20210;-81
2023/06/20 23:46:10;;;;;;;11.05;9.95;;;21.50;99.90;;;;;;5035384;28;20230;-81
2023/06/20 23:48:38;;;;;;;11.35;10.23;;;21.60;99.90;;;;;;5032955;28;20213;-81
2023/06/20 23:51:05;;;;;;;8.55;7.80;;;21.80;99.90;;;;;;5016518;28;20191;-81
2023/06/20 23:53:33;;;;;;;10.18;9.13;;;22.20;99.90;;;;;;5019162;28;20203;-81
2023/06/20 23:56:01;;;;;;;10.02;9.15;;;22.30;99.90;;;;;;5020731;28;20215;-81
2023/06/20 23:58:31;;;;;;;8.32;7.57;;;22.30;99.90;;;;;;5018858;28;20203;-81
